Time;durP1;ratioP1;P1;durP2;ratioP2;P2;SDS_P1;SDS_P2;PMS_P1;PMS_P2;Temp;Humidity;BMP_temperature;BMP_pressure;BME280_temperature;BME280_humidity;BME280_pressure;Samples;Min_cycle;Max_cycle;Signal;HPM_P1;HPM_P2
2021/08/07 00:00:08;;;;;;;;;;;;;;;5.63;100.00;98683.75;5049725;28;19975;-85
2021/08/07 00:02:33;;;;;;;;;;;;;;;5.63;98.46;98684.63;5061937;28;19939;-86
2021/08/07 00:04:59;;;;;;;;;;;;;;;5.61;98.47;98681.19;5076101;28;20250;-86
2021/08/07 00:07:27;;;;;;;;;;;;;;;5.57;98.74;98679.63;5066160;28;19928;-86
2021/08/07 00:09:52;;;;;;;;;;;;;;;5.53;98.45;98678.03;5055768;28;19921;-86
2021/08/07 00:12:18;;;;;;;;;;;;;;;5.53;99.13;98685.91;5064781;28;19921;-86
2021/08/07 00:14:44;;;;;;;;;;;;;;;5.54;98.69;98685.00;5042161;28;19944;-86
2021/08/07 03:18:50;;;;;;;;;;;;;;;5.55;97.09;98609.63;3143719;22;20016;-86
2021/08/07 03:21:16;;;;;;;;;;;;;;;5.66;97.99;98606.56;5001128;28;19983;-86
2021/08/07 03:23:41;;;;;;;;;;;;;;;5.61;96.53;98602.34;5001405;28;19976;-86
2021/08/07 03:26:08;;;;;;;;;;;;;;;5.68;96.87;98602.09;5001166;28;19929;-86
2021/08/07 03:28:34;;;;;;;;;;;;;;;5.61;97.96;98593.63;5001178;28;19928;-86
2021/08/07 03:30:59;;;;;;;;;;;;;;;5.72;98.16;98588.78;5001955;28;19926;-86
2021/08/07 03:33:24;;;;;;;;;;;;;;;5.79;97.24;98590.25;5001440;28;19918;-87
2021/08/07 03:35:50;;;;;;;;;;;;;;;5.85;97.48;98594.38;5001426;28;19972;-86
2021/08/07 03:38:15;;;;;;;;;;;;;;;5.77;98.44;98596.47;4999897;28;19918;-89
2021/08/07 03:40:40;;;;;;;;;;;;;;;5.69;98.58;98596.78;5000540;28;19929;-86
2021/08/07 03:43:06;;;;;;;;;;;;;;;5.84;98.15;98600.56;5001163;28;20310;-86
2021/08/07 03:45:31;;;;;;;;;;;;;;;5.76;98.43;98594.75;5001072;28;19929;-87
2021/08/07 03:47:56;;;;;;;;;;;;;;;5.74;99.02;98593.97;5001679;28;19953;-87
2021/08/07 03:50:22;;;;;;;;;;;;;;;5.81;100.00;98590.16;5001339;28;19964;-87
2021/08/07 03:52:47;;;;;;;;;;;;;;;6.36;100.00;98584.31;5000533;28;19918;-86
2021/08/07 03:55:14;;;;;;;;;;;;;;;6.58;100.00;98576.28;5000260;28;20288;-88
2021/08/07 03:57:53;;;;;;;;;;;;;;;6.62;100.00;98569.97;4999924;28;19921;-89
2021/08/07 04:00:19;;;;;;;;;;;;;;;6.49;100.00;98577.59;5000369;28;19937;-87
2021/08/07 04:02:45;;;;;;;;;;;;;;;6.33;100.00;98574.78;5000188;28;19934;-89
2021/08/07 04:05:10;;;;;;;;;;;;;;;6.46;100.00;98571.56;4998876;28;19921;-89
2021/08/07 04:07:36;;;;;;;;;;;;;;;6.24;100.00;98575.19;4999371;28;20305;-88
2021/08/07 04:10:01;;;;;;;;;;;;;;;6.19;100.00;98564.03;5000290;28;19921;-88
2021/08/07 04:12:27;;;;;;;;;;;;;;;6.64;100.00;98562.00;4999065;28;19929;-88
2021/08/07 04:14:52;;;;;;;;;;;;;;;7.06;100.00;98564.38;5000404;28;19921;-88
2021/08/07 04:17:17;;;;;;;;;;;;;;;7.26;100.00;98559.94;4999499;28;19933;-88
2021/08/07 04:19:42;;;;;;;;;;;;;;;7.41;100.00;98560.97;4999262;28;19922;-87
2021/08/07 04:22:08;;;;;;;;;;;;;;;7.37;100.00;98565.53;5000318;28;20016;-87
2021/08/07 04:24:33;;;;;;;;;;;;;;;7.27;100.00;98561.63;4999920;28;19973;-88
2021/08/07 04:26:59;;;;;;;;;;;;;;;7.10;100.00;98573.00;4999757;28;19992;-88
2021/08/07 04:29:24;;;;;;;;;;;;;;;6.80;100.00;98570.06;4998732;28;20233;-88
2021/08/07 04:31:49;;;;;;;;;;;;;;;6.68;100.00;98567.03;4999062;28;20313;-87
2021/08/07 04:34:15;;;;;;;;;;;;;;;6.59;100.00;98567.47;4999542;28;19917;-88
2021/08/07 04:36:40;;;;;;;;;;;;;;;6.54;100.00;98575.59;4998722;28;20209;-88
2021/08/07 04:39:05;;;;;;;;;;;;;;;6.39;100.00;98573.63;4999737;28;19926;-88
2021/08/07 04:41:31;;;;;;;;;;;;;;;6.36;100.00;98565.88;4998650;28;19922;-88
2021/08/07 04:43:56;;;;;;;;;;;;;;;6.34;100.00;98570.38;4999437;28;19926;-87
2021/08/07 04:46:21;;;;;;;;;;;;;;;6.35;100.00;98566.78;4999319;28;19921;-88
2021/08/07 04:48:47;;;;;;;;;;;;;;;6.32;100.00;98561.69;4999158;28;19928;-88
2021/08/07 04:51:12;;;;;;;;;;;;;;;6.46;100.00;98564.56;4998763;28;20020;-87
2021/08/07 04:53:37;;;;;;;;;;;;;;;6.30;100.00;98574.91;4999122;28;20107;-88
2021/08/07 04:56:03;;;;;;;;;;;;;;;6.34;100.00;98570.38;4999252;28;19960;-88
2021/08/07 04:58:28;;;;;;;;;;;;;;;6.27;100.00;98569.78;4999057;28;19918;-88
2021/08/07 05:00:54;;;;;;;;;;;;;;;6.47;100.00;98573.28;4998228;28;19925;-88
2021/08/07 05:03:19;;;;;;;;;;;;;;;6.23;100.00;98568.22;4998958;28;19922;-88
2021/08/07 05:05:44;;;;;;;;;;;;;;;6.29;100.00;98564.47;4999133;28;19922;-89
2021/08/07 05:08:09;;;;;;;;;;;;;;;6.21;100.00;98577.06;4998037;28;20020;-88
2021/08/07 05:10:35;;;;;;;;;;;;;;;6.26;100.00;98568.06;4998019;28;19972;-89
2021/08/07 07:37:47;;;;;;;;;;;;;;;6.21;100.00;98545.50;5067950;22;19960;-90
2021/08/07 07:40:12;;;;;;;;;;;;;;;6.17;100.00;98558.84;5018775;28;20280;-89
2021/08/07 07:42:37;;;;;;;;;;;;;;;6.26;100.00;98549.66;5020558;28;20016;-90
2021/08/07 07:45:04;;;;;;;;;;;;;;;6.26;100.00;98547.03;5018478;28;19932;-90
2021/08/07 07:47:29;;;;;;;;;;;;;;;6.22;100.00;98545.44;5019634;28;19925;-90
2021/08/07 07:49:54;;;;;;;;;;;;;;;6.16;100.00;98556.28;5014416;28;19927;-89
2021/08/07 07:52:20;;;;;;;;;;;;;;;6.20;100.00;98544.66;5015359;28;20204;-89
2021/08/07 07:54:45;;;;;;;;;;;;;;;6.28;100.00;98550.44;5021084;28;19921;-88
2021/08/07 07:57:10;;;;;;;;;;;;;;;6.17;100.00;98550.06;5021390;28;19921;-89
2021/08/07 07:59:36;;;;;;;;;;;;;;;6.29;100.00;98554.78;5021225;28;20025;-90
2021/08/07 08:02:02;;;;;;;;;;;;;;;6.27;100.00;98543.50;5020598;28;19921;-88
2021/08/07 08:04:29;;;;;;;;;;;;;;;6.17;100.00;98542.19;5020603;28;20296;-91
2021/08/07 08:06:55;;;;;;;;;;;;;;;6.27;100.00;98543.50;5021065;28;19922;-90
2021/08/07 08:09:20;;;;;;;;;;;;;;;6.19;100.00;98556.13;5003769;28;19926;-89
2021/08/07 08:11:50;;;;;;;;;;;;;;;6.20;100.00;98551.72;5028752;28;19971;-89
2021/08/07 08:14:15;;;;;;;;;;;;;;;6.17;100.00;98547.44;5019537;28;19991;-89
2021/08/07 08:16:40;;;;;;;;;;;;;;;6.29;100.00;98554.78;5039430;28;19961;-89
2021/08/07 08:19:06;;;;;;;;;;;;;;;6.24;100.00;98548.88;5023062;28;19932;-89
2021/08/07 08:21:33;;;;;;;;;;;;;;;6.38;100.00;98561.41;5022676;28;20002;-89
2021/08/07 08:23:59;;;;;;;;;;;;;;;6.40;100.00;98556.94;5022829;28;19995;-89
2021/08/07 08:26:24;;;;;;;;;;;;;;;6.43;100.00;98558.56;5040125;28;19925;-88
2021/08/07 08:28:52;;;;;;;;;;;;;;;6.47;100.00;98545.19;5023637;28;19921;-88
2021/08/07 08:31:17;;;;;;;;;;;;;;;6.40;100.00;98537.66;5040303;28;19921;-87
2021/08/07 08:33:42;;;;;;;;;;;;;;;6.33;100.00;98551.09;5040621;28;19931;-88
2021/08/07 08:36:08;;;;;;;;;;;;;;;6.40;100.00;98540.28;5036149;28;19936;-88
2021/08/07 08:38:33;;;;;;;;;;;;;;;6.41;100.00;98534.09;5020952;28;20265;-90
2021/08/07 08:40:59;;;;;;;;;;;;;;;6.28;100.00;98539.91;5020300;28;19926;-89
2021/08/07 08:43:24;;;;;;;;;;;;;;;6.40;100.00;98532.38;5020355;28;19933;-89
2021/08/07 08:45:50;;;;;;;;;;;;;;;6.23;100.00;98541.91;5022413;28;19921;-89
2021/08/07 08:48:18;;;;;;;;;;;;;;;6.34;100.00;98538.81;5040494;28;19921;-89
2021/08/07 08:50:45;;;;;;;;;;;;;;;6.42;100.00;98531.41;5029219;28;20182;-88
2021/08/07 08:53:12;;;;;;;;;;;;;;;6.39;100.00;98526.28;5040192;28;19956;-89
2021/08/07 08:55:39;;;;;;;;;;;;;;;6.25;100.00;98534.78;5038894;28;19921;-89
2021/08/07 08:58:04;;;;;;;;;;;;;;;6.18;100.00;98523.69;5039755;28;20296;-89
2021/08/07 09:00:29;;;;;;;;;;;;;;;6.44;100.00;98540.06;5039738;28;19921;-90
2021/08/07 09:02:55;;;;;;;;;;;;;;;6.40;100.00;98537.66;5022032;28;20292;-88
2021/08/07 09:05:20;;;;;;;;;;;;;;;6.40;100.00;98528.00;5022045;28;20340;-89
2021/08/07 09:07:46;;;;;;;;;;;;;;;6.39;100.00;98530.69;5039908;28;20574;-89
2021/08/07 09:10:11;;;;;;;;;;;;;;;6.44;100.00;98528.69;5023255;28;19925;-89
2021/08/07 09:12:38;;;;;;;;;;;;;;;6.44;100.00;98515.53;5038586;28;20451;-88
2021/08/07 09:15:04;;;;;;;;;;;;;;;6.41;100.00;98513.91;5038945;28;19970;-89
2021/08/07 09:17:30;;;;;;;;;;;;;;;6.35;100.00;98519.44;5038541;28;19921;-89
2021/08/07 09:19:56;;;;;;;;;;;;;;;6.35;100.00;98525.56;5039715;28;19932;-88
2021/08/07 09:22:22;;;;;;;;;;;;;;;6.35;100.00;98514.19;5038668;28;19932;-89
2021/08/07 09:24:55;;;;;;;;;;;;;;;6.47;100.00;98499.63;5040085;28;20239;-89
2021/08/07 09:27:27;;;;;;;;;;;;;;;6.40;100.00;98500.81;5040582;28;19931;-89
2021/08/07 09:29:53;;;;;;;;;;;;;;;6.44;100.00;98505.03;5036294;28;20230;-89
2021/08/07 09:32:18;;;;;;;;;;;;;;;6.50;100.00;98494.22;5039481;28;19925;-90
2021/08/07 09:34:44;;;;;;;;;;;;;;;6.57;100.00;98492.13;5032545;28;20023;-88
2021/08/07 09:37:18;;;;;;;;;;;;;;;6.43;100.00;98495.41;5040818;28;19921;-89
2021/08/07 09:39:46;;;;;;;;;;;;;;;6.36;100.00;98500.94;5041536;28;20303;-88
2021/08/07 09:42:12;;;;;;;;;;;;;;;6.34;100.00;98500.19;5030002;28;20292;-89
2021/08/07 09:44:38;;;;;;;;;;;;;;;6.54;100.00;98498.38;5021503;28;19979;-89
2021/08/07 09:47:05;;;;;;;;;;;;;;;6.40;100.00;98493.78;5021459;28;20177;-89
2021/08/07 09:49:34;;;;;;;;;;;;;;;6.34;100.00;98492.28;5039011;28;20263;-89
2021/08/07 09:51:59;;;;;;;;;;;;;;;6.29;100.00;98489.00;5039040;28;19925;-89
2021/08/07 09:54:33;;;;;;;;;;;;;;;6.25;100.00;98492.69;5039238;28;19931;-89
2021/08/07 09:56:59;;;;;;;;;;;;;;;6.39;100.00;98499.13;5022149;28;19960;-89
2021/08/07 09:59:26;;;;;;;;;;;;;;;6.29;100.00;98494.28;5051007;28;20200;-89
2021/08/07 10:01:52;;;;;;;;;;;;;;;6.28;100.00;98497.81;5021872;28;19968;-89
2021/08/07 10:04:20;;;;;;;;;;;;;;;6.26;100.00;98496.22;5038242;28;19925;-89
2021/08/07 10:06:46;;;;;;;;;;;;;;;6.24;100.00;98498.03;5038570;28;20022;-90
2021/08/07 10:09:29;;;;;;;;;;;;;;;6.33;100.00;98495.84;5038436;28;19921;-90
2021/08/07 10:12:08;;;;;;;;;;;;;;;6.41;100.00;98499.91;5038185;28;21038;-89
2021/08/07 10:14:34;;;;;;;;;;;;;;;6.40;100.00;98500.81;5036478;28;20020;-88
2021/08/07 10:17:01;;;;;;;;;;;;;;;6.45;100.00;98506.75;5021637;28;19921;-89
2021/08/07 10:19:26;;;;;;;;;;;;;;;6.43;100.00;98503.31;5038831;28;19932;-88
2021/08/07 10:21:52;;;;;;;;;;;;;;;6.38;100.00;98498.25;5039368;28;20188;-88
2021/08/07 10:24:18;;;;;;;;;;;;;;;6.35;100.00;98493.13;5038866;28;19983;-87
2021/08/07 10:26:44;;;;;;;;;;;;;;;6.40;100.00;98493.78;5020885;28;19932;-90
2021/08/07 10:29:10;;;;;;;;;;;;;;;6.35;100.00;98494.00;5037889;28;19931;-90
2021/08/07 10:31:36;;;;;;;;;;;;;;;6.33;100.00;98495.84;5020541;28;20007;-86
2021/08/07 10:34:06;;;;;;;;;;;;;;;6.36;100.00;98490.44;5038986;28;19952;-87
2021/08/07 10:36:31;;;;;;;;;;;;;;;6.50;100.00;98494.22;5032399;28;19937;-87
2021/08/07 10:38:57;;;;;;;;;;;;;;;6.43;100.00;98490.16;5037473;28;19921;-88
2021/08/07 10:41:27;;;;;;;;;;;;;;;6.41;100.00;98495.47;5029452;28;19932;-90
2021/08/07 10:43:53;;;;;;;;;;;;;;;6.45;100.00;98494.41;5018466;28;20231;-87
2021/08/07 10:46:19;;;;;;;;;;;;;;;6.43;100.00;98484.88;5038728;28;19944;-87
2021/08/07 10:48:45;;;;;;;;;;;;;;;6.41;100.00;98481.47;5039714;28;19920;-89
2021/08/07 10:51:23;;;;;;;;;;;;;;;6.51;100.00;98480.97;5041818;28;20169;-87
2021/08/07 10:53:52;;;;;;;;;;;;;;;6.44;100.00;98482.19;5024443;28;19921;-89
2021/08/07 10:56:28;;;;;;;;;;;;;;;6.41;100.00;98478.84;5041732;28;19939;-89
2021/08/07 10:58:54;;;;;;;;;;;;;;;6.42;100.00;98475.31;5022099;28;19921;-88
2021/08/07 11:01:26;;;;;;;;;;;;;;;6.44;100.00;98478.72;5028735;28;19932;-89
2021/08/07 11:04:03;;;;;;;;;;;;;;;6.35;100.00;98467.69;5040443;28;20006;-89
2021/08/07 11:06:37;;;;;;;;;;;;;;;6.41;100.00;98465.69;5023638;28;20240;-90
2021/08/07 11:09:17;;;;;;;;;;;;;;;6.46;100.00;98458.44;5024177;28;20327;-89
2021/08/07 11:11:43;;;;;;;;;;;;;;;6.48;100.00;98456.59;5022911;28;19982;-88
2021/08/07 11:14:26;;;;;;;;;;;;;;;6.41;100.00;98448.13;5041007;28;20020;-88
2021/08/07 11:17:07;;;;;;;;;;;;;;;6.49;100.00;98443.38;5042004;28;20288;-90
2021/08/07 11:20:04;;;;;;;;;;;;;;;6.54;100.00;98446.63;5035825;28;19929;-88
2021/08/07 11:22:33;;;;;;;;;;;;;;;6.54;100.00;98445.75;5025054;28;19933;-88
2021/08/07 11:24:59;;;;;;;;;;;;;;;6.56;100.00;98441.28;5023117;28;19936;-89
2021/08/07 11:27:43;;;;;;;;;;;;;;;6.53;100.00;98439.66;5040255;28;19928;-89
2021/08/07 11:30:16;;;;;;;;;;;;;;;6.61;100.00;98443.72;5037702;28;20178;-89
2021/08/07 11:32:44;;;;;;;;;;;;;;;6.61;100.00;98444.56;5035763;28;20296;-88
2021/08/07 11:35:12;;;;;;;;;;;;;;;6.57;100.00;98450.03;5023610;28;19952;-90
2021/08/07 11:37:38;;;;;;;;;;;;;;;6.62;100.00;98443.63;5023360;28;19932;-90
2021/08/07 11:40:07;;;;;;;;;;;;;;;6.60;100.00;98449.88;5040914;28;20039;-88
2021/08/07 11:42:34;;;;;;;;;;;;;;;6.48;100.00;98449.53;5022558;28;20020;-89
2021/08/07 11:45:00;;;;;;;;;;;;;;;6.50;100.00;98444.22;5023038;28;19986;-89
2021/08/07 11:47:27;;;;;;;;;;;;;;;6.56;100.00;98443.94;5023163;28;19972;-89
2021/08/07 11:49:53;;;;;;;;;;;;;;;6.54;100.00;98441.38;5039081;28;20319;-89
2021/08/07 11:52:19;;;;;;;;;;;;;;;6.51;100.00;98435.38;5023091;28;19932;-87
2021/08/07 11:54:45;;;;;;;;;;;;;;;6.52;100.00;98432.66;5022814;28;20000;-88
2021/08/07 11:57:23;;;;;;;;;;;;;;;6.54;100.00;98440.50;5040034;28;20312;-89
2021/08/07 11:59:48;;;;;;;;;;;;;;;6.67;100.00;98433.72;5019113;28;19951;-88
2021/08/07 12:02:15;;;;;;;;;;;;;;;6.60;100.00;98434.09;5040593;28;19964;-88
2021/08/07 12:04:41;;;;;;;;;;;;;;;6.57;100.00;98427.19;5039591;28;19929;-90
2021/08/07 12:07:13;;;;;;;;;;;;;;;6.58;100.00;98433.31;5040228;28;19929;-88
2021/08/07 12:09:58;;;;;;;;;;;;;;;6.63;100.00;98426.06;5023770;28;19923;-89
2021/08/07 12:12:23;;;;;;;;;;;;;;;6.61;100.00;98427.91;5040734;28;20307;-89
2021/08/07 12:14:49;;;;;;;;;;;;;;;6.62;100.00;98433.09;5041017;28;19929;-89
2021/08/07 12:17:14;;;;;;;;;;;;;;;6.64;100.00;98420.72;5040029;28;20012;-89
2021/08/07 12:19:39;;;;;;;;;;;;;;;6.55;100.00;98419.38;5022249;28;19921;-88
2021/08/07 12:22:05;;;;;;;;;;;;;;;6.59;100.00;98421.84;5022290;28;19921;-89
2021/08/07 12:24:31;;;;;;;;;;;;;;;6.58;100.00;98418.38;5040367;28;19925;-88
2021/08/07 12:26:58;;;;;;;;;;;;;;;6.62;100.00;98417.31;5040016;28;19921;-89
2021/08/07 12:29:26;;;;;;;;;;;;;;;6.68;100.00;98411.72;5022567;28;19921;-88
2021/08/07 12:31:53;;;;;;;;;;;;;;;6.60;100.00;98413.03;5003682;28;19922;-89
2021/08/07 12:34:21;;;;;;;;;;;;;;;6.66;100.00;98415.38;5017343;28;19986;-88
2021/08/07 12:37:05;;;;;;;;;;;;;;;6.59;100.00;98413.97;5023256;28;20082;-90
2021/08/07 12:39:43;;;;;;;;;;;;;;;6.61;100.00;98410.34;5039044;28;19921;-89
2021/08/07 12:42:10;;;;;;;;;;;;;;;6.64;100.00;98414.59;5040492;28;19974;-88
2021/08/07 12:44:35;;;;;;;;;;;;;;;6.68;100.00;98410.88;5023158;28;20407;-88
2021/08/07 12:47:01;;;;;;;;;;;;;;;6.60;100.00;98413.03;5040202;28;19967;-88
2021/08/07 12:49:33;;;;;;;;;;;;;;;6.60;100.00;98419.16;5038878;28;20363;-88
2021/08/07 12:52:05;;;;;;;;;;;;;;;6.64;100.00;98414.59;5039617;28;19932;-88
2021/08/07 12:54:31;;;;;;;;;;;;;;;6.64;100.00;98410.19;5022953;28;20285;-89
2021/08/07 12:56:57;;;;;;;;;;;;;;;6.58;100.00;98413.13;5039771;28;19978;-88
2021/08/07 12:59:24;;;;;;;;;;;;;;;6.69;100.00;98416.06;5039422;28;20462;-89
2021/08/07 13:02:16;;;;;;;;;;;;;;;6.63;100.00;98413.72;5022235;28;20533;-88
2021/08/07 13:04:46;;;;;;;;;;;;;;;6.69;100.00;98412.59;5034059;28;20288;-89
2021/08/07 13:07:13;;;;;;;;;;;;;;;6.67;100.00;98419.69;5040271;28;19921;-89
2021/08/07 13:09:39;;;;;;;;;;;;;;;6.71;100.00;98414.22;5029685;28;19917;-89
2021/08/07 13:12:04;;;;;;;;;;;;;;;6.70;100.00;98423.06;5023002;28;19967;-87
2021/08/07 13:14:29;;;;;;;;;;;;;;;6.67;100.00;98412.66;5019323;28;19932;-88
2021/08/07 13:16:55;;;;;;;;;;;;;;;6.69;100.00;98421.34;5020225;28;20028;-89
2021/08/07 13:19:26;;;;;;;;;;;;;;;6.65;100.00;98422.44;5003614;28;20259;-88
2021/08/07 13:21:53;;;;;;;;;;;;;;;6.71;100.00;98427.38;5019590;28;20004;-90
2021/08/07 13:24:25;;;;;;;;;;;;;;;6.71;100.00;98430.00;5005121;28;20285;-88
2021/08/07 13:26:51;;;;;;;;;;;;;;;6.72;100.00;98429.09;5038153;28;20173;-89
2021/08/07 13:29:17;;;;;;;;;;;;;;;6.70;100.00;98440.59;5021038;28;19968;-88
2021/08/07 13:31:42;;;;;;;;;;;;;;;6.76;100.00;98431.56;5022242;28;19979;-88
2021/08/07 13:34:08;;;;;;;;;;;;;;;6.80;100.00;98425.25;5038959;28;19927;-88
2021/08/07 13:36:33;;;;;;;;;;;;;;;6.75;100.00;98428.09;5023517;28;19921;-89
2021/08/07 13:38:59;;;;;;;;;;;;;;;6.76;100.00;98423.69;5016849;28;19983;-89
2021/08/07 13:41:24;;;;;;;;;;;;;;;6.72;100.00;98418.56;5021495;28;20292;-89
2021/08/07 13:43:50;;;;;;;;;;;;;;;6.66;100.00;98429.38;5038834;28;19936;-88
2021/08/07 13:46:15;;;;;;;;;;;;;;;6.73;100.00;98424.66;5039569;28;19952;-88
2021/08/07 13:48:40;;;;;;;;;;;;;;;6.66;100.00;98412.75;5021858;28;19957;-89
2021/08/07 13:51:06;;;;;;;;;;;;;;;6.77;100.00;98431.50;5039060;28;19959;-89
2021/08/07 13:53:31;;;;;;;;;;;;;;;6.73;100.00;98425.53;5022215;28;20030;-88
2021/08/07 13:55:56;;;;;;;;;;;;;;;6.72;100.00;98429.09;5022338;28;20375;-92
2021/08/07 13:58:22;;;;;;;;;;;;;;;6.75;100.00;98430.72;5021807;28;19967;-88
2021/08/07 14:00:47;;;;;;;;;;;;;;;6.76;100.00;98424.53;5039406;28;20173;-88
2021/08/07 14:03:14;;;;;;;;;;;;;;;6.71;100.00;98416.00;5039324;28;19925;-88
2021/08/07 14:05:39;;;;;;;;;;;;;;;6.67;100.00;98410.03;5022436;28;20579;-88
2021/08/07 14:08:05;;;;;;;;;;;;;;;6.68;100.00;98411.72;5039689;28;19979;-88
2021/08/07 14:10:30;;;;;;;;;;;;;;;6.78;100.00;98404.25;5040280;28;20078;-88
2021/08/07 14:12:56;;;;;;;;;;;;;;;6.77;100.00;98404.34;5039858;28;19979;-88
2021/08/07 14:15:21;;;;;;;;;;;;;;;6.71;100.00;98411.56;5039253;28;20307;-88
2021/08/07 14:17:46;;;;;;;;;;;;;;;6.78;100.00;98406.00;5021857;28;19964;-89
2021/08/07 14:20:12;;;;;;;;;;;;;;;6.70;100.00;98409.88;5021563;28;19921;-88
2021/08/07 14:22:37;;;;;;;;;;;;;;;6.72;100.00;98421.19;5021811;28;19932;-88
2021/08/07 14:25:03;;;;;;;;;;;;;;;6.79;100.00;98421.75;5025900;28;19921;-88
2021/08/07 14:27:28;;;;;;;;;;;;;;;6.79;100.00;98420.91;5026237;28;20289;-89
2021/08/07 14:29:53;;;;;;;;;;;;;;;6.86;100.00;98417.00;5025770;28;20278;-88
2021/08/07 14:32:18;;;;;;;;;;;;;;;6.84;100.00;98421.50;5043015;28;19936;-88
2021/08/07 14:34:44;;;;;;;;;;;;;;;6.92;100.00;98435.16;5026517;28;19986;-89
2021/08/07 14:37:10;;;;;;;;;;;;;;;6.95;100.00;98439.44;5042067;28;19923;-88
2021/08/07 14:39:35;;;;;;;;;;;;;;;6.90;100.00;98447.53;5024239;28;19921;-88
2021/08/07 14:42:00;;;;;;;;;;;;;;;6.94;100.00;98445.59;5024500;28;19921;-88
2021/08/07 14:44:26;;;;;;;;;;;;;;;6.90;100.00;98444.91;5042332;28;19933;-88
2021/08/07 14:46:51;;;;;;;;;;;;;;;6.88;100.00;98444.16;5052277;28;19921;-88
2021/08/07 14:49:16;;;;;;;;;;;;;;;6.90;100.00;98452.81;5025099;28;20334;-88
2021/08/07 14:51:42;;;;;;;;;;;;;;;6.95;100.00;98456.06;5024663;28;19932;-88
2021/08/07 14:54:08;;;;;;;;;;;;;;;6.99;100.00;98462.03;5024700;28;20447;-88
2021/08/07 14:56:33;;;;;;;;;;;;;;;6.96;100.00;98470.09;5041812;28;19931;-88
2021/08/07 14:58:58;;;;;;;;;;;;;;;6.93;100.00;98462.34;5024703;28;19951;-88
2021/08/07 15:01:24;;;;;;;;;;;;;;;6.98;100.00;98457.72;5024642;28;19928;-89
2021/08/07 15:03:50;;;;;;;;;;;;;;;6.93;100.00;98465.84;5042112;28;19925;-88
2021/08/07 15:06:15;;;;;;;;;;;;;;;6.98;100.00;98434.84;5024871;28;19940;-88
2021/08/07 15:08:46;;;;;;;;;;;;;;;7.00;100.00;98430.34;5041585;28;21271;-88
2021/08/07 15:11:12;;;;;;;;;;;;;;;7.03;100.00;98435.47;5024258;28;19928;-88
2021/08/07 15:13:37;;;;;;;;;;;;;;;7.01;100.00;98445.22;5041303;28;20290;-88
2021/08/07 15:16:06;;;;;;;;;;;;;;;7.04;100.00;98436.34;5024156;28;19921;-88
2021/08/07 15:18:31;;;;;;;;;;;;;;;7.06;100.00;98427.41;5042078;28;20276;-87
2021/08/07 15:20:56;;;;;;;;;;;;;;;7.07;100.00;98420.38;5023670;28;19925;-88
2021/08/07 15:23:22;;;;;;;;;;;;;;;7.02;100.00;98409.19;5023583;28;19982;-88
2021/08/07 15:25:47;;;;;;;;;;;;;;;7.03;100.00;98422.28;5041007;28;19981;-88
2021/08/07 15:28:12;;;;;;;;;;;;;;;9.15;100.00;98409.09;5041458;28;20395;-90
2021/08/07 15:30:37;;;;;;;;;;;;;;;8.45;100.00;98406.94;5044729;28;19932;-89
2021/08/07 15:33:04;;;;;;;;;;;;;;;7.78;100.00;98406.19;5021919;28;19933;-90
2021/08/07 15:35:30;;;;;;;;;;;;;;;7.66;100.00;98402.41;5039826;28;19944;-89
2021/08/07 15:37:56;;;;;;;;;;;;;;;7.45;100.00;98401.75;5036883;28;20245;-89
2021/08/07 15:40:21;;;;;;;;;;;;;;;7.49;100.00;98384.00;5040556;28;19961;-88
2021/08/07 15:42:47;;;;;;;;;;;;;;;7.41;100.00;98384.41;5040394;28;19933;-90
2021/08/07 15:45:12;;;;;;;;;;;;;;;7.46;100.00;98391.13;5023898;28;19921;-88
2021/08/07 15:47:38;;;;;;;;;;;;;;;7.35;100.00;98390.81;5040659;28;19929;-89
2021/08/07 15:50:04;;;;;;;;;;;;;;;7.33;100.00;98397.13;5023518;28;19921;-89
2021/08/07 15:52:29;;;;;;;;;;;;;;;7.32;100.00;98398.03;5023680;28;19928;-89
2021/08/07 15:54:55;;;;;;;;;;;;;;;7.32;100.00;98409.44;5023854;28;20204;-89
2021/08/07 15:57:20;;;;;;;;;;;;;;;7.29;100.00;98401.69;5040529;28;19925;-88
2021/08/07 15:59:45;;;;;;;;;;;;;;;7.30;100.00;98398.13;5039988;28;20504;-89
2021/08/07 16:02:12;;;;;;;;;;;;;;;7.27;100.00;98385.09;5036337;28;19960;-89
2021/08/07 16:04:39;;;;;;;;;;;;;;;7.31;100.00;98383.16;5020783;28;19925;-88
2021/08/07 16:07:04;;;;;;;;;;;;;;;7.31;100.00;98389.31;5022385;28;19932;-89
2021/08/07 16:09:30;;;;;;;;;;;;;;;7.30;100.00;98387.59;5021202;28;20212;-89
2021/08/07 16:11:56;;;;;;;;;;;;;;;7.32;100.00;98385.72;5035153;28;19992;-89
2021/08/07 16:14:22;;;;;;;;;;;;;;;7.28;100.00;98400.00;5037437;28;20305;-88
2021/08/07 16:16:47;;;;;;;;;;;;;;;7.32;100.00;98404.16;5018967;28;19929;-89
2021/08/07 16:19:13;;;;;;;;;;;;;;;7.30;100.00;98395.50;5037297;28;19977;-88
2021/08/07 16:21:39;;;;;;;;;;;;;;;7.30;100.00;98403.41;5019508;28;19933;-88
2021/08/07 16:24:04;;;;;;;;;;;;;;;7.31;100.00;98409.50;5021208;28;19925;-89
2021/08/07 16:26:30;;;;;;;;;;;;;;;7.28;100.00;98415.81;5021767;28;19947;-88
2021/08/07 16:28:56;;;;;;;;;;;;;;;7.25;100.00;98410.69;5042678;28;20293;-89
2021/08/07 16:31:22;;;;;;;;;;;;;;;7.27;100.00;98414.09;5022504;28;20260;-89
2021/08/07 16:33:49;;;;;;;;;;;;;;;7.42;100.00;98400.13;5040536;28;19921;-89
2021/08/07 16:36:16;;;;;;;;;;;;;;;7.27;100.00;98387.75;5037948;28;19921;-89
2021/08/07 16:38:41;;;;;;;;;;;;;;;7.33;100.00;98390.06;5020385;28;19982;-89
2021/08/07 16:41:06;;;;;;;;;;;;;;;7.33;100.00;98403.25;5038566;28;19927;-89
2021/08/07 16:43:32;;;;;;;;;;;;;;;7.33;100.00;98400.59;5037615;28;19925;-88
2021/08/07 16:45:57;;;;;;;;;;;;;;;7.38;100.00;98395.94;5020650;28;19925;-88
2021/08/07 16:48:23;;;;;;;;;;;;;;;7.36;100.00;98403.09;5020946;28;20016;-89
2021/08/07 16:50:48;;;;;;;;;;;;;;;7.26;100.00;98407.97;5020868;28;20268;-89
2021/08/07 16:53:13;;;;;;;;;;;;;;;7.38;100.00;98406.47;5022348;28;19932;-90
2021/08/07 16:55:42;;;;;;;;;;;;;;;7.28;100.00;98413.16;5020792;28;19932;-88
2021/08/07 16:58:08;;;;;;;;;;;;;;;7.38;100.00;98419.66;5021623;28;19921;-88
2021/08/07 17:00:34;;;;;;;;;;;;;;;7.33;100.00;98424.31;5018525;28;20263;-88
2021/08/07 17:03:02;;;;;;;;;;;;;;;7.42;100.00;98423.84;5040032;28;19929;-89
2021/08/07 17:05:34;;;;;;;;;;;;;;;7.33;100.00;98421.69;5025478;28;19920;-89
2021/08/07 17:08:13;;;;;;;;;;;;;;;7.26;100.00;98431.69;5018045;28;19929;-89
2021/08/07 17:10:40;;;;;;;;;;;;;;;7.35;100.00;98442.69;5020994;28;20182;-89
2021/08/07 17:13:05;;;;;;;;;;;;;;;7.38;100.00;98447.81;5020903;28;20300;-89
2021/08/07 17:15:38;;;;;;;;;;;;;;;7.33;100.00;98440.13;5019699;28;19932;-90
2021/08/07 17:18:04;;;;;;;;;;;;;;;7.32;100.00;98451.59;5019471;28;19929;-89
2021/08/07 17:20:30;;;;;;;;;;;;;;;7.26;100.00;98451.94;5022288;28;20324;-89
2021/08/07 17:22:55;;;;;;;;;;;;;;;7.23;100.00;98439.75;5020004;28;19968;-89
2021/08/07 17:25:23;;;;;;;;;;;;;;;7.38;100.00;98442.53;5003597;28;21717;-89
2021/08/07 17:27:50;;;;;;;;;;;;;;;7.26;100.00;98441.38;5019736;28;19921;-88
2021/08/07 17:30:16;;;;;;;;;;;;;;;7.28;100.00;98423.72;5020944;28;20296;-89
2021/08/07 17:32:43;;;;;;;;;;;;;;;7.29;100.00;98420.13;5036901;28;19931;-88
2021/08/07 17:35:09;;;;;;;;;;;;;;;7.30;100.00;98421.84;5038409;28;20381;-88
2021/08/07 17:37:39;;;;;;;;;;;;;;;7.22;100.00;98422.22;5047296;28;19925;-89
2021/08/07 17:40:06;;;;;;;;;;;;;;;7.31;100.00;98415.66;5044351;28;19920;-88
2021/08/07 17:42:33;;;;;;;;;;;;;;;7.18;100.00;98411.91;5021462;28;19921;-88
2021/08/07 17:44:59;;;;;;;;;;;;;;;7.31;100.00;98410.38;5020915;28;20417;-91
2021/08/07 17:47:28;;;;;;;;;;;;;;;7.19;100.00;98400.47;5039271;28;20015;-88
2021/08/07 17:49:54;;;;;;;;;;;;;;;7.19;100.00;98390.75;5017694;28;19921;-89
2021/08/07 17:52:19;;;;;;;;;;;;;;;7.21;100.00;98403.84;5041672;28;19936;-90
2021/08/07 17:54:45;;;;;;;;;;;;;;;7.18;100.00;98411.91;5022264;28;20220;-87
2021/08/07 17:57:11;;;;;;;;;;;;;;;7.23;100.00;98404.66;5037203;28;19952;-89
2021/08/07 17:59:37;;;;;;;;;;;;;;;7.15;100.00;98391.88;5037965;28;20011;-89
2021/08/07 18:02:03;;;;;;;;;;;;;;;7.22;100.00;98403.78;5020089;28;19979;-91
2021/08/07 18:04:28;;;;;;;;;;;;;;;7.18;100.00;98428.59;5019032;28;19932;-89
2021/08/07 18:06:56;;;;;;;;;;;;;;;7.21;100.00;98432.84;5021631;28;19937;-89
2021/08/07 18:09:22;;;;;;;;;;;;;;;7.21;100.00;98431.06;5037555;28;19921;-89
2021/08/07 18:11:47;;;;;;;;;;;;;;;7.20;100.00;98432.00;5036606;28;20003;-89